createdAt,value
2018-07-28T00:01:02.884Z,24.40
2018-07-28T00:03:31.262Z,24.40
2018-07-28T00:08:28.074Z,24.30
2018-07-28T00:10:56.482Z,24.30
2018-07-28T00:13:24.865Z,24.20
2018-07-28T00:15:53.249Z,24.30
2018-07-28T00:18:21.638Z,24.30
2018-07-28T00:20:49.977Z,24.30
2018-07-28T00:23:18.281Z,24.20
2018-07-28T00:28:20.292Z,23.80
2018-07-28T00:30:48.617Z,23.70
2018-07-28T00:33:16.992Z,23.70
2018-07-28T00:35:45.359Z,23.80
2018-07-28T00:38:13.738Z,23.90
2018-07-28T00:40:42.127Z,23.90
2018-07-28T00:43:11.449Z,23.90
2018-07-28T00:45:39.809Z,24.00
2018-07-28T00:48:08.201Z,24.00
2018-07-28T00:50:36.566Z,24.00
2018-07-28T00:53:05.149Z,23.90
2018-07-28T00:55:33.507Z,23.80
2018-07-28T00:58:01.801Z,23.60
2018-07-28T01:00:30.169Z,23.60
2018-07-28T01:02:59.337Z,23.60
2018-07-28T01:05:27.670Z,23.50
2018-07-28T01:07:55.995Z,23.50
2018-07-28T01:10:24.397Z,23.60
2018-07-28T01:12:52.733Z,23.60
2018-07-28T01:15:21.145Z,23.50
2018-07-28T01:17:49.546Z,23.50
2018-07-28T01:22:46.334Z,23.40
2018-07-28T01:25:14.695Z,23.30
2018-07-28T01:27:43.019Z,23.30
2018-07-28T01:30:17.443Z,23.40
2018-07-28T01:32:46.050Z,23.10
2018-07-28T01:35:14.356Z,23.20
2018-07-28T01:37:42.669Z,23.20
2018-07-28T01:40:11.018Z,23.20
2018-07-28T01:42:39.433Z,23.20
2018-07-28T01:45:08.564Z,23.30
2018-07-28T01:50:07.164Z,23.50
2018-07-28T01:52:35.522Z,23.50
2018-07-28T01:55:04.117Z,23.50
2018-07-28T01:57:32.473Z,23.50
2018-07-28T02:00:00.897Z,23.50
2018-07-28T02:02:29.323Z,23.40
2018-07-28T02:04:57.689Z,23.40
2018-07-28T02:07:26.026Z,23.30
2018-07-28T02:09:54.433Z,23.30
2018-07-28T02:12:22.797Z,23.20
2018-07-28T02:17:19.420Z,23.10
2018-07-28T02:22:16.000Z,23.20
2018-07-28T02:24:44.317Z,23.20
2018-07-28T02:27:12.672Z,23.20
2018-07-28T02:29:40.948Z,23.30
2018-07-28T02:32:09.371Z,23.40
2018-07-28T02:39:35.022Z,23.30
2018-07-28T02:44:31.638Z,23.30
2018-07-28T02:47:00.014Z,23.30
2018-07-28T02:49:28.290Z,23.20
2018-07-28T02:51:56.606Z,23.20
2018-07-28T02:54:24.869Z,23.10
2018-07-28T02:59:21.342Z,23.00
2018-07-28T03:01:49.742Z,23.00
2018-07-28T03:04:18.070Z,23.00
2018-07-28T03:09:14.587Z,23.00
2018-07-28T03:11:42.881Z,23.00
2018-07-28T03:14:11.261Z,23.10
2018-07-28T03:21:36.045Z,23.00
2018-07-28T03:24:04.406Z,23.00
2018-07-28T03:26:32.717Z,23.10
2018-07-28T03:29:01.023Z,23.10
2018-07-28T03:33:57.593Z,23.20
2018-07-28T03:36:25.886Z,23.00
2018-07-28T03:38:54.202Z,22.90
2018-07-28T03:41:22.533Z,22.80
2018-07-28T03:43:50.876Z,22.80
2018-07-28T03:46:19.288Z,22.70
2018-07-28T03:48:47.615Z,22.60
2018-07-28T03:51:15.940Z,22.60
2018-07-28T03:53:44.260Z,22.60
2018-07-28T03:56:12.589Z,22.50
2018-07-28T03:58:40.896Z,22.50
2018-07-28T04:01:09.241Z,22.50
2018-07-28T04:03:37.574Z,22.60
2018-07-28T04:06:05.925Z,22.70
2018-07-28T04:08:34.266Z,22.70
2018-07-28T04:11:02.681Z,22.80
2018-07-28T04:13:30.982Z,22.80
2018-07-28T04:15:59.331Z,22.80
2018-07-28T04:18:27.649Z,22.90
2018-07-28T04:20:56.018Z,22.90
2018-07-28T04:23:24.381Z,22.80
2018-07-28T04:25:52.702Z,22.80
2018-07-28T04:28:21.014Z,22.80
2018-07-28T04:30:49.301Z,22.90
2018-07-28T04:33:17.611Z,22.90
2018-07-28T04:38:14.189Z,22.80
2018-07-28T04:40:42.590Z,22.80
2018-07-28T04:43:10.885Z,22.80
2018-07-28T04:45:39.160Z,22.80
2018-07-28T04:48:07.605Z,22.80
2018-07-28T04:50:35.899Z,22.90
2018-07-28T04:53:04.267Z,23.00
2018-07-28T04:55:32.538Z,23.00
2018-07-28T04:58:00.854Z,22.90
2018-07-28T05:00:29.264Z,22.80
2018-07-28T05:02:57.629Z,22.80
2018-07-28T05:07:54.242Z,23.00
2018-07-28T05:10:22.531Z,23.10
2018-07-28T05:12:50.868Z,23.20
2018-07-28T05:17:47.367Z,23.50
2018-07-28T05:20:15.727Z,23.50
2018-07-28T05:22:44.097Z,23.60
2018-07-28T05:25:12.410Z,23.50
2018-07-28T05:27:40.718Z,23.60
2018-07-28T05:30:10.389Z,23.60
2018-07-28T05:32:38.751Z,23.70
2018-07-28T05:35:08.654Z,23.80
2018-07-28T05:37:37.021Z,23.80
2018-07-28T05:40:05.440Z,23.70
2018-07-28T05:45:01.929Z,23.60
2018-07-28T05:47:30.277Z,23.60
2018-07-28T05:49:58.616Z,23.60
2018-07-28T05:52:26.964Z,23.60
2018-07-28T05:54:55.717Z,23.70
2018-07-28T05:57:23.986Z,23.70
2018-07-28T05:59:52.338Z,23.80
2018-07-28T06:02:20.737Z,23.90
2018-07-28T06:04:48.996Z,24.00
2018-07-28T06:07:17.921Z,24.10
2018-07-28T06:09:46.642Z,24.20
2018-07-28T06:12:14.970Z,24.40
2018-07-28T06:14:43.354Z,24.50
2018-07-28T06:17:11.807Z,24.60
2018-07-28T06:19:40.154Z,24.70
2018-07-28T06:22:08.573Z,24.80
2018-07-28T06:24:36.946Z,24.80
2018-07-28T06:27:05.464Z,24.90
2018-07-28T06:29:33.737Z,24.90
2018-07-28T06:32:02.187Z,25.00
2018-07-28T06:34:30.498Z,25.10
2018-07-28T06:36:58.838Z,25.30
2018-07-28T06:39:27.240Z,25.40
2018-07-28T06:41:55.591Z,25.50
2018-07-28T06:44:23.914Z,25.60
2018-07-28T06:46:52.271Z,25.70
2018-07-28T06:49:20.621Z,25.80
2018-07-28T06:51:48.987Z,26.00
2018-07-28T06:54:17.454Z,26.20
2018-07-28T06:56:45.806Z,26.30
2018-07-28T06:59:14.137Z,26.40
2018-07-28T07:01:42.535Z,26.50
2018-07-28T07:04:10.898Z,26.50
2018-07-28T07:06:39.341Z,26.60
2018-07-28T07:11:37.491Z,26.60
2018-07-28T07:14:05.865Z,26.50
2018-07-28T07:16:34.677Z,26.50
2018-07-28T07:19:03.036Z,26.60
2018-07-28T07:21:31.436Z,26.60
2018-07-28T07:23:59.847Z,26.60
2018-07-28T07:26:28.193Z,26.60
2018-07-28T07:28:56.604Z,26.60
2018-07-28T07:31:25.013Z,26.70
2018-07-28T07:33:53.482Z,26.40
2018-07-28T07:36:21.833Z,26.20
2018-07-28T07:38:51.043Z,26.20
2018-07-28T07:41:19.414Z,26.20
2018-07-28T07:43:47.758Z,26.20
2018-07-28T07:46:16.097Z,26.10
2018-07-28T07:48:44.468Z,26.00
2018-07-28T07:51:12.876Z,26.00
2018-07-28T07:53:41.264Z,26.20
2018-07-28T07:56:09.541Z,26.20
2018-07-28T07:58:37.921Z,26.20
2018-07-28T08:01:06.265Z,26.20
2018-07-28T08:03:34.628Z,26.30
2018-07-28T08:06:03.074Z,26.40
2018-07-28T08:08:31.461Z,26.30
2018-07-28T08:10:59.846Z,26.20
2018-07-28T08:13:28.237Z,26.10
2018-07-28T08:15:56.673Z,26.10
2018-07-28T08:18:24.981Z,26.10
2018-07-28T08:20:53.357Z,26.20
2018-07-28T08:23:21.766Z,25.90
2018-07-28T08:25:50.094Z,25.60
2018-07-28T08:28:18.390Z,25.40
2018-07-28T08:30:46.766Z,25.10
2018-07-28T08:33:15.093Z,24.90
2018-07-28T08:35:43.437Z,24.80
2018-07-28T08:38:11.845Z,24.70
2018-07-28T08:40:40.299Z,24.70
2018-07-28T08:43:08.767Z,24.70
2018-07-28T08:45:37.164Z,24.60
2018-07-28T08:48:05.751Z,24.80
2018-07-28T08:50:34.245Z,24.70
2018-07-28T08:53:03.754Z,24.60
2018-07-28T08:55:32.181Z,24.70
2018-07-28T08:58:00.587Z,24.70
2018-07-28T09:00:28.996Z,24.80
2018-07-28T09:02:57.416Z,24.80
2018-07-28T09:05:25.828Z,24.90
2018-07-28T09:07:54.205Z,25.00
2018-07-28T09:10:22.584Z,25.10
2018-07-28T09:12:50.923Z,25.30
2018-07-28T09:15:19.350Z,25.50
2018-07-28T09:17:47.785Z,25.50
2018-07-28T09:20:16.208Z,25.50
2018-07-28T09:22:45.668Z,25.50
2018-07-28T09:25:14.073Z,25.70
2018-07-28T09:27:42.437Z,25.90
2018-07-28T09:30:10.817Z,26.20
2018-07-28T09:32:39.175Z,26.40
2018-07-28T09:35:07.555Z,26.50
2018-07-28T09:37:35.952Z,26.60
2018-07-28T09:40:05.017Z,26.50
2018-07-28T09:42:33.349Z,26.60
2018-07-28T09:45:01.799Z,26.60
2018-07-28T09:47:30.126Z,26.50
2018-07-28T09:49:58.470Z,26.60
2018-07-28T09:52:27.017Z,26.60
2018-07-28T09:54:55.753Z,26.70
2018-07-28T09:57:24.149Z,26.50
2018-07-28T09:59:52.626Z,26.60
2018-07-28T10:02:21.005Z,26.60
2018-07-28T10:07:17.614Z,26.80
2018-07-28T10:09:45.996Z,27.00
2018-07-28T10:12:14.405Z,27.20
2018-07-28T10:14:42.802Z,27.40
2018-07-28T10:17:11.228Z,27.50
2018-07-28T10:19:39.565Z,27.50
2018-07-28T10:22:07.970Z,27.50
2018-07-28T10:24:36.439Z,27.60
2018-07-28T10:27:04.996Z,27.60
2018-07-28T10:29:33.346Z,27.70
2018-07-28T10:32:01.811Z,27.90
2018-07-28T10:34:30.395Z,28.00
2018-07-28T10:37:05.536Z,28.00
2018-07-28T10:39:34.000Z,28.10
2018-07-28T10:42:02.510Z,28.20
2018-07-28T10:44:30.886Z,28.20
2018-07-28T10:46:59.311Z,28.10
2018-07-28T10:49:27.737Z,28.10
2018-07-28T10:51:56.305Z,28.20
2018-07-28T10:54:24.699Z,28.30
2018-07-28T10:56:53.324Z,28.30
2018-07-28T10:59:21.700Z,28.30
2018-07-28T11:01:50.112Z,28.50
2018-07-28T11:04:18.497Z,28.50
2018-07-28T11:06:46.894Z,28.50
2018-07-28T11:09:15.385Z,28.60
2018-07-28T11:11:43.670Z,28.60
2018-07-28T11:14:12.074Z,28.80
2018-07-28T11:16:40.483Z,28.90
2018-07-28T11:19:08.983Z,29.00
2018-07-28T11:21:37.475Z,29.00
2018-07-28T11:26:34.333Z,29.20
2018-07-28T11:29:02.819Z,29.30
2018-07-28T11:31:48.079Z,29.40
2018-07-28T11:36:34.958Z,29.50
2018-07-28T11:39:20.297Z,29.50
2018-07-28T11:44:44.887Z,29.30
2018-07-28T11:47:13.321Z,29.30
2018-07-28T11:49:42.426Z,29.30
2018-07-28T11:52:10.851Z,29.20
2018-07-28T11:54:39.242Z,29.20
2018-07-28T11:57:07.654Z,29.20
2018-07-28T11:59:35.998Z,29.40
2018-07-28T12:02:04.421Z,29.40
2018-07-28T12:04:32.789Z,29.50
2018-07-28T12:07:01.278Z,29.60
2018-07-28T12:09:29.703Z,29.70
2018-07-28T12:11:58.142Z,29.80
2018-07-28T12:14:26.616Z,29.90
2018-07-28T12:16:55.001Z,30.00
2018-07-28T12:19:23.402Z,30.00
2018-07-28T12:21:51.817Z,30.00
2018-07-28T12:24:20.195Z,30.00
2018-07-28T12:26:48.673Z,30.10
2018-07-28T12:29:17.065Z,30.20
2018-07-28T12:34:13.721Z,30.30
2018-07-28T12:39:11.119Z,29.90
2018-07-28T12:41:39.769Z,29.90
2018-07-28T12:44:08.276Z,30.00
2018-07-28T12:46:36.746Z,29.90
2018-07-28T12:49:05.243Z,29.80
2018-07-28T12:54:01.950Z,29.60
2018-07-28T12:56:30.367Z,29.60
2018-07-28T12:58:58.785Z,29.60
2018-07-28T13:01:27.265Z,29.60
2018-07-28T13:03:55.850Z,28.50
2018-07-28T13:06:24.553Z,28.40
2018-07-28T13:08:52.905Z,28.20
2018-07-28T13:11:21.317Z,28.00
2018-07-28T13:13:49.723Z,28.00
2018-07-28T13:16:18.170Z,28.10
2018-07-28T13:18:46.558Z,28.30
2018-07-28T13:21:14.955Z,28.50
2018-07-28T13:23:43.377Z,28.70
2018-07-28T13:26:11.775Z,28.80
2018-07-28T13:28:40.156Z,28.60
2018-07-28T13:31:08.588Z,28.40
2018-07-28T13:36:05.315Z,28.70
2018-07-28T13:38:33.718Z,28.50
2018-07-28T13:41:02.092Z,28.60
2018-07-28T13:45:58.705Z,28.70
2018-07-28T13:48:27.173Z,28.70
2018-07-28T13:50:55.622Z,28.90
2018-07-28T13:53:24.113Z,28.70
2018-07-28T13:55:52.515Z,28.80
2018-07-28T13:58:20.907Z,28.70
2018-07-28T14:00:49.310Z,28.80
2018-07-28T14:03:17.721Z,28.80
2018-07-28T14:05:46.122Z,28.60
2018-07-28T14:08:14.547Z,28.60
2018-07-28T14:13:11.780Z,28.60
2018-07-28T14:15:40.185Z,28.60
2018-07-28T14:18:08.543Z,28.40
2018-07-28T14:20:36.966Z,28.50
2018-07-28T14:23:05.503Z,28.50
2018-07-28T14:25:33.865Z,28.40
2018-07-28T14:28:02.243Z,28.40
2018-07-28T14:30:30.627Z,28.60
2018-07-28T14:32:59.017Z,28.90
2018-07-28T14:35:27.461Z,29.00
2018-07-28T14:37:55.816Z,29.10
2018-07-28T14:40:24.205Z,29.20
2018-07-28T14:42:52.617Z,29.10
2018-07-28T14:45:21.009Z,29.20
2018-07-28T14:47:49.536Z,29.10
2018-07-28T14:50:17.905Z,29.10
2018-07-28T14:52:46.285Z,29.10
2018-07-28T14:55:14.648Z,29.10
2018-07-28T14:57:43.025Z,29.10
2018-07-28T15:00:11.430Z,29.00
2018-07-28T15:02:39.809Z,29.00
2018-07-28T15:05:08.214Z,29.00
2018-07-28T15:07:36.638Z,29.00
2018-07-28T15:10:05.052Z,29.00
2018-07-28T15:12:33.426Z,29.00
2018-07-28T15:17:30.163Z,28.80
2018-07-28T15:19:58.602Z,28.80
2018-07-28T15:22:26.981Z,28.90
2018-07-28T15:27:23.637Z,29.00
2018-07-28T15:29:52.005Z,29.00
2018-07-28T15:34:48.673Z,29.00
2018-07-28T15:37:17.066Z,28.90
2018-07-28T15:39:45.481Z,28.60
2018-07-28T15:42:13.829Z,28.40
2018-07-28T15:44:42.266Z,28.20
2018-07-28T15:47:10.802Z,28.20
2018-07-28T15:49:39.187Z,28.30
2018-07-28T15:52:07.544Z,28.30
2018-07-28T15:54:35.911Z,28.30
2018-07-28T15:57:04.989Z,28.30
2018-07-28T15:59:33.471Z,28.20
2018-07-28T16:02:02.038Z,28.20
2018-07-28T16:04:30.469Z,28.10
2018-07-28T16:06:58.902Z,27.90
2018-07-28T16:09:27.241Z,28.00
2018-07-28T16:11:55.642Z,27.90
2018-07-28T16:14:23.973Z,27.90
2018-07-28T16:16:52.357Z,27.80
2018-07-28T16:19:20.722Z,27.70
2018-07-28T16:21:49.100Z,27.60
2018-07-28T16:24:17.498Z,27.50
2018-07-28T16:26:45.863Z,27.40
2018-07-28T16:29:14.309Z,27.40
2018-07-28T16:31:42.705Z,27.40
2018-07-28T16:36:39.373Z,27.40
2018-07-28T16:39:09.776Z,27.50
2018-07-28T16:44:06.650Z,27.50
2018-07-28T16:46:35.130Z,27.40
2018-07-28T16:49:03.604Z,27.30
2018-07-28T16:51:32.005Z,27.30
2018-07-28T16:54:00.443Z,27.20
2018-07-28T16:56:28.861Z,27.20
2018-07-28T16:58:57.570Z,27.20
2018-07-28T17:01:25.999Z,27.20
2018-07-28T17:03:54.481Z,27.10
2018-07-28T17:06:22.944Z,27.10
2018-07-28T17:08:51.270Z,27.20
2018-07-28T17:11:19.645Z,27.10
2018-07-28T17:13:48.012Z,27.10
2018-07-28T17:16:16.437Z,27.20
2018-07-28T17:18:44.786Z,27.10
2018-07-28T17:21:13.205Z,27.00
2018-07-28T17:23:41.657Z,27.00
2018-07-28T17:26:10.007Z,26.90
2018-07-28T17:28:38.484Z,26.90
2018-07-28T17:31:07.399Z,26.80
2018-07-28T17:33:35.819Z,26.70
2018-07-28T17:38:32.590Z,26.80
2018-07-28T17:41:01.047Z,26.90
2018-07-28T17:43:29.544Z,26.90
2018-07-28T17:45:57.901Z,27.00
2018-07-28T17:48:26.343Z,27.00
2018-07-28T17:50:54.766Z,26.90
2018-07-28T17:53:23.361Z,26.80
2018-07-28T17:55:51.825Z,26.70
2018-07-28T17:58:20.345Z,26.60
2018-07-28T18:00:48.754Z,26.50
2018-07-28T18:03:17.242Z,26.50
2018-07-28T18:08:13.969Z,26.60
2018-07-28T18:10:42.375Z,26.60
2018-07-28T18:13:10.787Z,26.60
2018-07-28T18:15:39.187Z,26.60
2018-07-28T18:18:07.578Z,26.70
2018-07-28T18:20:36.057Z,26.70
2018-07-28T18:23:04.868Z,26.70
2018-07-28T18:25:33.273Z,26.70
2018-07-28T18:28:02.028Z,26.60
2018-07-28T18:30:30.465Z,26.50
2018-07-28T18:32:58.830Z,26.40
2018-07-28T18:35:27.253Z,26.40
2018-07-28T18:37:55.640Z,26.40
2018-07-28T18:42:52.299Z,26.20
2018-07-28T18:45:20.706Z,26.20
2018-07-28T18:47:49.101Z,26.20
2018-07-28T18:50:17.494Z,26.10
2018-07-28T18:52:45.916Z,26.10
2018-07-28T18:55:14.399Z,26.00
2018-07-28T18:57:42.696Z,25.90
2018-07-28T19:00:11.285Z,25.90
2018-07-28T19:02:39.797Z,25.90
2018-07-28T19:05:08.260Z,25.90
2018-07-28T19:07:36.779Z,25.90
2018-07-28T19:10:05.304Z,25.80
2018-07-28T19:12:39.301Z,25.80
2018-07-28T19:17:41.547Z,25.70
2018-07-28T19:20:10.013Z,25.70
2018-07-28T19:22:43.985Z,25.70
2018-07-28T19:25:12.439Z,25.60
2018-07-28T19:27:45.421Z,25.50
2018-07-28T19:30:13.800Z,25.60
2018-07-28T19:32:42.179Z,25.60
2018-07-28T19:37:38.880Z,25.60
2018-07-28T19:40:08.796Z,25.60
2018-07-28T19:42:55.116Z,25.60
2018-07-28T19:45:23.466Z,25.50
2018-07-28T19:47:51.826Z,25.50
2018-07-28T19:50:20.180Z,25.40
2018-07-28T19:55:16.954Z,25.40
2018-07-28T19:57:45.357Z,25.40
2018-07-28T20:00:13.894Z,25.40
2018-07-28T20:02:42.452Z,25.40
2018-07-28T20:05:11.875Z,25.30
2018-07-28T20:07:40.375Z,25.20
2018-07-28T20:10:08.851Z,25.20
2018-07-28T20:12:37.373Z,25.20
2018-07-28T20:15:05.965Z,25.20
2018-07-28T20:17:35.375Z,25.20
2018-07-28T20:20:04.011Z,25.10
2018-07-28T20:22:33.953Z,25.10
2018-07-28T20:25:02.490Z,25.10
2018-07-28T20:27:31.143Z,25.00
2018-07-28T20:29:59.494Z,24.90
2018-07-28T20:32:27.937Z,24.90
2018-07-28T20:34:56.261Z,24.90
2018-07-28T20:37:24.742Z,24.90
2018-07-28T20:39:53.083Z,24.80
2018-07-28T20:42:21.390Z,24.80
2018-07-28T20:44:49.822Z,24.80
2018-07-28T20:47:18.258Z,24.80
2018-07-28T20:49:46.626Z,24.80
2018-07-28T20:52:15.148Z,24.70
2018-07-28T20:54:43.516Z,24.80
2018-07-28T20:57:11.959Z,24.80
2018-07-28T20:59:40.259Z,24.80
2018-07-28T21:02:08.674Z,24.70
2018-07-28T21:04:37.083Z,24.70
2018-07-28T21:07:05.606Z,24.60
2018-07-28T21:09:34.067Z,24.60
2018-07-28T21:12:02.507Z,24.60
2018-07-28T21:14:30.893Z,24.50
2018-07-28T21:16:59.209Z,24.50
2018-07-28T21:19:27.696Z,24.50
2018-07-28T21:24:24.444Z,24.60
2018-07-28T21:29:21.334Z,24.40
2018-07-28T21:34:17.926Z,24.40
2018-07-28T21:36:46.350Z,24.40
2018-07-28T21:39:14.726Z,24.40
2018-07-28T21:44:11.690Z,24.20
2018-07-28T21:46:40.035Z,24.10
2018-07-28T21:49:08.445Z,24.10
2018-07-28T21:51:36.804Z,24.10
2018-07-28T21:54:05.229Z,24.00
2018-07-28T21:59:15.061Z,23.90
2018-07-28T22:04:18.262Z,23.90
2018-07-28T22:09:14.940Z,23.90
2018-07-28T22:11:43.454Z,23.90
2018-07-28T22:14:11.823Z,23.80
2018-07-28T22:16:40.119Z,23.80
2018-07-28T22:19:08.457Z,23.80
2018-07-28T22:21:36.856Z,23.80
2018-07-28T22:24:05.285Z,23.80
2018-07-28T22:26:33.590Z,23.90
2018-07-28T22:29:02.017Z,23.90
2018-07-28T22:31:30.322Z,23.90
2018-07-28T22:33:58.717Z,23.90
2018-07-28T22:36:27.037Z,23.90
2018-07-28T22:38:55.458Z,23.90
2018-07-28T22:41:23.845Z,23.90
2018-07-28T22:43:53.152Z,23.90
2018-07-28T22:46:21.559Z,23.90
2018-07-28T22:48:49.951Z,23.80
2018-07-28T22:51:18.383Z,23.80
2018-07-28T22:53:46.761Z,23.90
2018-07-28T22:56:15.053Z,23.80
2018-07-28T22:58:44.290Z,23.80
2018-07-28T23:01:12.702Z,23.80
2018-07-28T23:03:41.041Z,23.80
2018-07-28T23:08:37.586Z,23.70
2018-07-28T23:11:06.001Z,23.80
2018-07-28T23:13:34.285Z,23.80
2018-07-28T23:16:02.798Z,23.80
2018-07-28T23:18:31.111Z,23.70
2018-07-28T23:20:59.523Z,23.70
2018-07-28T23:23:27.961Z,23.70
2018-07-28T23:25:57.295Z,23.80
2018-07-28T23:28:25.673Z,23.70
2018-07-28T23:30:54.033Z,23.70
2018-07-28T23:38:19.172Z,23.60
2018-07-28T23:40:47.505Z,23.60
2018-07-28T23:43:15.872Z,23.50
2018-07-28T23:45:44.228Z,23.40
2018-07-28T23:48:12.553Z,23.30
2018-07-28T23:50:40.852Z,23.40
2018-07-28T23:53:09.180Z,23.30
2018-07-28T23:55:37.584Z,23.40
2018-07-28T23:58:05.904Z,23.40
